sensor_id;sensor_type;location;lat;lon;timestamp;pressure;altitude;pressure_sealevel;temperature;humidity
74675;BME280;63200;48.810;12.352;2022-12-16T00:00:11;96041.31;;;-2.13;77.54
74675;BME280;63200;48.810;12.352;2022-12-16T00:02:38;96004.22;;;-2.37;77.88
74675;BME280;63200;48.810;12.352;2022-12-16T00:05:04;96009.06;;;-2.34;77.48
74675;BME280;63200;48.810;12.352;2022-12-16T00:07:30;95982.91;;;-2.54;77.43
74675;BME280;63200;48.810;12.352;2022-12-16T00:09:55;96026.34;;;-2.20;78.18
74675;BME280;63200;48.810;12.352;2022-12-16T00:12:20;96033.34;;;-2.13;78.09
74675;BME280;63200;48.810;12.352;2022-12-16T00:14:46;96022.06;;;-2.21;78.07
74675;BME280;63200;48.810;12.352;2022-12-16T00:17:11;96033.38;;;-2.25;78.00
74675;BME280;63200;48.810;12.352;2022-12-16T00:19:36;95979.78;;;-2.51;77.97
74675;BME280;63200;48.810;12.352;2022-12-16T00:22:02;95982.09;;;-2.55;78.00
74675;BME280;63200;48.810;12.352;2022-12-16T00:24:27;96034.88;;;-2.18;78.21
74675;BME280;63200;48.810;12.352;2022-12-16T00:26:55;96010.66;;;-2.33;78.42
74675;BME280;63200;48.810;12.352;2022-12-16T00:29:20;96018.56;;;-2.21;78.44
74675;BME280;63200;48.810;12.352;2022-12-16T00:31:46;96029.22;;;-2.21;78.09
74675;BME280;63200;48.810;12.352;2022-12-16T00:34:15;96034.75;;;-2.23;78.24
74675;BME280;63200;48.810;12.352;2022-12-16T00:36:42;95987.75;;;-2.51;78.45
74675;BME280;63200;48.810;12.352;2022-12-16T00:39:08;96018.22;;;-2.42;78.56
74675;BME280;63200;48.810;12.352;2022-12-16T00:41:34;96034.44;;;-2.26;78.54
74675;BME280;63200;48.810;12.352;2022-12-16T00:43:59;96003.00;;;-2.29;78.39
74675;BME280;63200;48.810;12.352;2022-12-16T00:46:24;96023.84;;;-2.09;78.57
74675;BME280;63200;48.810;12.352;2022-12-16T00:48:50;96038.59;;;-2.02;78.37
74675;BME280;63200;48.810;12.352;2022-12-16T00:51:15;96043.97;;;-2.13;78.52
74675;BME280;63200;48.810;12.352;2022-12-16T00:53:40;96020.50;;;-2.33;78.37
74675;BME280;63200;48.810;12.352;2022-12-16T00:56:08;96053.38;;;-2.23;78.45
74675;BME280;63200;48.810;12.352;2022-12-16T00:58:34;96047.44;;;-2.13;78.83
74675;BME280;63200;48.810;12.352;2022-12-16T01:01:00;96054.56;;;-2.02;78.47
74675;BME280;63200;48.810;12.352;2022-12-16T01:03:26;96052.63;;;-2.06;77.88
74675;BME280;63200;48.810;12.352;2022-12-16T01:05:51;96057.13;;;-2.07;78.28
74675;BME280;63200;48.810;12.352;2022-12-16T01:08:16;96002.59;;;-2.38;78.29
74675;BME280;63200;48.810;12.352;2022-12-16T01:10:42;96052.47;;;-1.99;78.40
74675;BME280;63200;48.810;12.352;2022-12-16T01:13:07;95993.78;;;-2.56;77.92
74675;BME280;63200;48.810;12.352;2022-12-16T01:15:32;96031.56;;;-2.25;78.48
74675;BME280;63200;48.810;12.352;2022-12-16T01:17:58;96056.13;;;-2.18;77.93
74675;BME280;63200;48.810;12.352;2022-12-16T01:20:23;96043.06;;;-2.19;77.72
74675;BME280;63200;48.810;12.352;2022-12-16T01:22:48;96052.44;;;-2.16;77.59
74675;BME280;63200;48.810;12.352;2022-12-16T01:25:14;96028.22;;;-2.32;77.44
74675;BME280;63200;48.810;12.352;2022-12-16T01:27:39;96028.41;;;-2.22;78.29
74675;BME280;63200;48.810;12.352;2022-12-16T01:30:06;96047.84;;;-2.04;77.46
74675;BME280;63200;48.810;12.352;2022-12-16T01:32:33;96055.38;;;-2.01;77.26
74675;BME280;63200;48.810;12.352;2022-12-16T01:34:58;96026.44;;;-2.26;77.37
74675;BME280;63200;48.810;12.352;2022-12-16T01:37:24;96025.50;;;-2.20;77.83
74675;BME280;63200;48.810;12.352;2022-12-16T01:39:50;96051.56;;;-2.05;78.05
74675;BME280;63200;48.810;12.352;2022-12-16T01:42:18;96038.09;;;-2.15;77.59
74675;BME280;63200;48.810;12.352;2022-12-16T01:44:46;96042.88;;;-2.01;77.36
74675;BME280;63200;48.810;12.352;2022-12-16T01:47:37;96070.94;;;-1.93;77.61
74675;BME280;63200;48.810;12.352;2022-12-16T01:50:14;96050.72;;;-2.23;77.38
74675;BME280;63200;48.810;12.352;2022-12-16T01:52:45;96076.69;;;-2.13;77.65
74675;BME280;63200;48.810;12.352;2022-12-16T01:55:30;96061.75;;;-2.31;78.28
74675;BME280;63200;48.810;12.352;2022-12-16T01:58:06;96077.19;;;-2.28;78.52
74675;BME280;63200;48.810;12.352;2022-12-16T02:00:34;96050.06;;;-2.59;78.38
74675;BME280;63200;48.810;12.352;2022-12-16T02:03:01;96074.78;;;-2.29;78.59
74675;BME280;63200;48.810;12.352;2022-12-16T02:05:27;96078.34;;;-2.24;78.48
74675;BME280;63200;48.810;12.352;2022-12-16T02:08:05;96081.03;;;-2.36;78.40
74675;BME280;63200;48.810;12.352;2022-12-16T02:13:38;96083.00;;;-2.31;78.48
74675;BME280;63200;48.810;12.352;2022-12-16T02:26:55;96070.09;;;-2.10;78.00
74675;BME280;63200;48.810;12.352;2022-12-16T02:35:08;96094.63;;;-2.20;77.78
74675;BME280;63200;48.810;12.352;2022-12-16T02:40:41;96080.91;;;-2.29;77.78
74675;BME280;63200;48.810;12.352;2022-12-16T02:43:18;96105.75;;;-2.23;77.75
74675;BME280;63200;48.810;12.352;2022-12-16T02:45:47;96104.97;;;-2.36;78.28
74675;BME280;63200;48.810;12.352;2022-12-16T02:48:13;96053.41;;;-2.63;78.22
74675;BME280;63200;48.810;12.352;2022-12-16T02:53:07;96095.44;;;-2.48;78.06
74675;BME280;63200;48.810;12.352;2022-12-16T02:56:44;96084.06;;;-2.44;77.70
74675;BME280;63200;48.810;12.352;2022-12-16T02:58:47;96108.06;;;-2.27;77.65
74675;BME280;63200;48.810;12.352;2022-12-16T03:01:29;96069.91;;;-2.61;78.38
74675;BME280;63200;48.810;12.352;2022-12-16T03:04:10;96111.47;;;-2.43;78.29
74675;BME280;63200;48.810;12.352;2022-12-16T03:06:38;96068.69;;;-2.82;78.81
74675;BME280;63200;48.810;12.352;2022-12-16T03:09:08;96052.66;;;-2.88;78.56
74675;BME280;63200;48.810;12.352;2022-12-16T03:11:35;96075.94;;;-2.78;78.67
74675;BME280;63200;48.810;12.352;2022-12-16T03:14:04;96073.53;;;-2.79;79.15
74675;BME280;63200;48.810;12.352;2022-12-16T03:16:32;96097.66;;;-2.69;79.06
74675;BME280;63200;48.810;12.352;2022-12-16T03:19:02;96133.19;;;-2.46;79.13
74675;BME280;63200;48.810;12.352;2022-12-16T03:21:33;96121.31;;;-2.56;79.05
74675;BME280;63200;48.810;12.352;2022-12-16T03:24:04;96138.88;;;-2.55;79.48
74675;BME280;63200;48.810;12.352;2022-12-16T03:32:14;96137.25;;;-2.56;79.05
74675;BME280;63200;48.810;12.352;2022-12-16T03:34:55;96133.09;;;-2.63;79.50
74675;BME280;63200;48.810;12.352;2022-12-16T03:37:26;96131.16;;;-2.68;79.63
74675;BME280;63200;48.810;12.352;2022-12-16T03:39:56;96145.00;;;-2.66;79.31
74675;BME280;63200;48.810;12.352;2022-12-16T03:42:22;96101.59;;;-2.95;79.24
74675;BME280;63200;48.810;12.352;2022-12-16T03:44:49;96149.38;;;-2.60;79.73
74675;BME280;63200;48.810;12.352;2022-12-16T03:47:14;96153.88;;;-2.48;79.07
74675;BME280;63200;48.810;12.352;2022-12-16T03:49:40;96113.69;;;-2.64;79.25
74675;BME280;63200;48.810;12.352;2022-12-16T03:52:05;96132.06;;;-2.74;78.69
74675;BME280;63200;48.810;12.352;2022-12-16T03:54:31;96119.38;;;-2.72;79.43
74675;BME280;63200;48.810;12.352;2022-12-16T03:56:56;96144.78;;;-2.64;79.41
74675;BME280;63200;48.810;12.352;2022-12-16T03:59:22;96150.41;;;-2.61;79.52
74675;BME280;63200;48.810;12.352;2022-12-16T04:01:48;96146.03;;;-2.55;79.66
74675;BME280;63200;48.810;12.352;2022-12-16T04:04:14;96134.59;;;-2.56;79.02
74675;BME280;63200;48.810;12.352;2022-12-16T04:06:39;96108.41;;;-2.76;79.20
74675;BME280;63200;48.810;12.352;2022-12-16T04:09:04;96129.19;;;-2.73;78.87
74675;BME280;63200;48.810;12.352;2022-12-16T04:11:30;96155.97;;;-2.62;79.12
74675;BME280;63200;48.810;12.352;2022-12-16T04:14:14;96160.00;;;-2.60;79.05
74675;BME280;63200;48.810;12.352;2022-12-16T04:16:58;96162.66;;;-2.60;79.43
74675;BME280;63200;48.810;12.352;2022-12-16T04:19:43;96161.19;;;-2.79;78.93
74675;BME280;63200;48.810;12.352;2022-12-16T04:22:32;96172.16;;;-2.76;79.14
74675;BME280;63200;48.810;12.352;2022-12-16T04:25:21;96172.16;;;-2.64;79.48
74675;BME280;63200;48.810;12.352;2022-12-16T04:27:48;96127.81;;;-2.87;79.31
74675;BME280;63200;48.810;12.352;2022-12-16T04:30:15;96181.75;;;-2.63;78.78
74675;BME280;63200;48.810;12.352;2022-12-16T04:32:54;96128.03;;;-3.12;79.04
74675;BME280;63200;48.810;12.352;2022-12-16T04:35:39;96185.56;;;-2.71;79.25
74675;BME280;63200;48.810;12.352;2022-12-16T04:38:24;96181.38;;;-2.66;79.15
74675;BME280;63200;48.810;12.352;2022-12-16T04:41:08;96194.31;;;-2.82;78.99
74675;BME280;63200;48.810;12.352;2022-12-16T04:43:52;96165.22;;;-2.89;79.63
74675;BME280;63200;48.810;12.352;2022-12-16T04:46:36;96170.28;;;-2.75;78.90
74675;BME280;63200;48.810;12.352;2022-12-16T04:49:19;96185.53;;;-2.59;79.15
74675;BME280;63200;48.810;12.352;2022-12-16T04:52:04;96151.16;;;-2.89;78.62
74675;BME280;63200;48.810;12.352;2022-12-16T04:54:48;96189.00;;;-2.82;78.92
74675;BME280;63200;48.810;12.352;2022-12-16T04:57:33;96203.34;;;-2.71;78.91
74675;BME280;63200;48.810;12.352;2022-12-16T05:00:17;96190.41;;;-2.68;78.96
74675;BME280;63200;48.810;12.352;2022-12-16T05:03:01;96177.47;;;-2.99;78.18
74675;BME280;63200;48.810;12.352;2022-12-16T05:05:45;96183.69;;;-2.82;78.63
74675;BME280;63200;48.810;12.352;2022-12-16T05:08:29;96184.16;;;-2.85;78.08
74675;BME280;63200;48.810;12.352;2022-12-16T05:11:13;96192.72;;;-2.83;78.09
74675;BME280;63200;48.810;12.352;2022-12-16T05:13:57;96163.63;;;-3.02;77.95
74675;BME280;63200;48.810;12.352;2022-12-16T05:16:41;96150.22;;;-3.07;78.22
74675;BME280;63200;48.810;12.352;2022-12-16T05:19:25;96211.88;;;-2.69;77.98
74675;BME280;63200;48.810;12.352;2022-12-16T05:22:09;96200.44;;;-2.93;78.04
74675;BME280;63200;48.810;12.352;2022-12-16T05:24:52;96162.66;;;-3.31;78.90
74675;BME280;63200;48.810;12.352;2022-12-16T05:27:36;96168.91;;;-3.25;78.28
74675;BME280;63200;48.810;12.352;2022-12-16T05:30:37;96205.06;;;-2.89;77.55
74675;BME280;63200;48.810;12.352;2022-12-16T05:33:22;96222.75;;;-2.82;77.62
74675;BME280;63200;48.810;12.352;2022-12-16T05:36:07;96226.06;;;-2.87;78.11
74675;BME280;63200;48.810;12.352;2022-12-16T05:38:51;96201.47;;;-2.94;77.93
74675;BME280;63200;48.810;12.352;2022-12-16T05:41:35;96224.25;;;-2.87;77.83
74675;BME280;63200;48.810;12.352;2022-12-16T05:44:19;96233.84;;;-2.86;77.33
74675;BME280;63200;48.810;12.352;2022-12-16T05:47:03;96213.72;;;-3.05;77.62
74675;BME280;63200;48.810;12.352;2022-12-16T05:49:54;96197.38;;;-3.32;77.98
74675;BME280;63200;48.810;12.352;2022-12-16T05:52:38;96174.84;;;-3.54;77.96
74675;BME280;63200;48.810;12.352;2022-12-16T05:55:22;96239.78;;;-3.02;77.94
74675;BME280;63200;48.810;12.352;2022-12-16T05:58:06;96229.75;;;-3.12;77.80
74675;BME280;63200;48.810;12.352;2022-12-16T06:00:50;96204.44;;;-3.26;77.81
74675;BME280;63200;48.810;12.352;2022-12-16T06:03:34;96246.97;;;-3.03;78.03
74675;BME280;63200;48.810;12.352;2022-12-16T06:06:18;96259.78;;;-2.99;77.92
74675;BME280;63200;48.810;12.352;2022-12-16T06:09:03;96264.94;;;-3.05;77.56
74675;BME280;63200;48.810;12.352;2022-12-16T06:11:47;96258.25;;;-3.07;78.25
74675;BME280;63200;48.810;12.352;2022-12-16T06:14:31;96247.28;;;-3.23;78.26
74675;BME280;63200;48.810;12.352;2022-12-16T06:17:15;96256.34;;;-3.30;78.29
74675;BME280;63200;48.810;12.352;2022-12-16T06:19:58;96288.28;;;-3.07;78.79
74675;BME280;63200;48.810;12.352;2022-12-16T06:22:42;96278.19;;;-3.16;79.03
74675;BME280;63200;48.810;12.352;2022-12-16T06:25:26;96248.34;;;-3.42;78.66
74675;BME280;63200;48.810;12.352;2022-12-16T06:28:09;96225.97;;;-3.46;79.22
74675;BME280;63200;48.810;12.352;2022-12-16T06:30:53;96270.34;;;-3.23;78.85
74675;BME280;63200;48.810;12.352;2022-12-16T06:33:37;96297.38;;;-3.14;78.92
74675;BME280;63200;48.810;12.352;2022-12-16T06:36:21;96303.72;;;-3.15;79.40
74675;BME280;63200;48.810;12.352;2022-12-16T06:39:05;96287.56;;;-3.14;79.42
74675;BME280;63200;48.810;12.352;2022-12-16T06:41:49;96289.75;;;-3.23;78.57
74675;BME280;63200;48.810;12.352;2022-12-16T06:44:33;96256.69;;;-3.39;78.95
74675;BME280;63200;48.810;12.352;2022-12-16T06:47:17;96285.63;;;-3.07;78.96
74675;BME280;63200;48.810;12.352;2022-12-16T06:50:01;96246.69;;;-3.25;78.92
74675;BME280;63200;48.810;12.352;2022-12-16T06:52:45;96277.34;;;-2.98;78.42
74675;BME280;63200;48.810;12.352;2022-12-16T06:55:29;96292.22;;;-2.97;78.35
74675;BME280;63200;48.810;12.352;2022-12-16T06:58:13;96315.44;;;-2.93;78.18
74675;BME280;63200;48.810;12.352;2022-12-16T07:00:56;96323.88;;;-2.96;78.46
74675;BME280;63200;48.810;12.352;2022-12-16T07:03:40;96293.41;;;-3.24;78.15
74675;BME280;63200;48.810;12.352;2022-12-16T07:06:24;96329.94;;;-3.07;78.55
74675;BME280;63200;48.810;12.352;2022-12-16T07:09:08;96316.47;;;-3.24;78.42
74675;BME280;63200;48.810;12.352;2022-12-16T07:11:52;96323.03;;;-3.27;78.61
74675;BME280;63200;48.810;12.352;2022-12-16T07:14:36;96282.13;;;-3.49;78.54
74675;BME280;63200;48.810;12.352;2022-12-16T07:17:20;96340.56;;;-3.07;78.95
74675;BME280;63200;48.810;12.352;2022-12-16T07:20:04;96355.47;;;-3.06;78.84
74675;BME280;63200;48.810;12.352;2022-12-16T07:22:47;96340.25;;;-3.29;78.60
74675;BME280;63200;48.810;12.352;2022-12-16T07:25:31;96356.56;;;-3.14;78.70
74675;BME280;63200;48.810;12.352;2022-12-16T07:28:15;96358.66;;;-3.16;78.50
74675;BME280;63200;48.810;12.352;2022-12-16T07:30:59;96379.13;;;-3.05;78.89
74675;BME280;63200;48.810;12.352;2022-12-16T07:33:43;96398.41;;;-3.09;79.15
74675;BME280;63200;48.810;12.352;2022-12-16T07:36:27;96350.88;;;-3.29;79.06
74675;BME280;63200;48.810;12.352;2022-12-16T07:39:10;96395.00;;;-3.16;78.71
74675;BME280;63200;48.810;12.352;2022-12-16T07:41:54;96334.91;;;-3.60;78.54
74675;BME280;63200;48.810;12.352;2022-12-16T07:44:38;96388.75;;;-3.22;78.66
74675;BME280;63200;48.810;12.352;2022-12-16T07:47:22;96419.84;;;-2.92;78.41
74675;BME280;63200;48.810;12.352;2022-12-16T07:50:06;96421.38;;;-3.03;77.80
74675;BME280;63200;48.810;12.352;2022-12-16T07:52:54;96429.56;;;-3.05;78.32
74675;BME280;63200;48.810;12.352;2022-12-16T07:55:38;96407.94;;;-3.20;78.06
74675;BME280;63200;48.810;12.352;2022-12-16T07:58:22;96433.38;;;-2.82;77.93
74675;BME280;63200;48.810;12.352;2022-12-16T08:01:06;96419.13;;;-2.88;77.35
74675;BME280;63200;48.810;12.352;2022-12-16T08:03:50;96414.53;;;-2.92;77.60
74675;BME280;63200;48.810;12.352;2022-12-16T08:06:33;96418.63;;;-2.96;76.98
74675;BME280;63200;48.810;12.352;2022-12-16T08:09:17;96402.63;;;-3.20;76.53
74675;BME280;63200;48.810;12.352;2022-12-16T08:12:01;96433.94;;;-3.10;77.45
74675;BME280;63200;48.810;12.352;2022-12-16T08:15:02;96442.41;;;-3.02;76.99
74675;BME280;63200;48.810;12.352;2022-12-16T08:17:50;96461.84;;;-2.71;76.97
74675;BME280;63200;48.810;12.352;2022-12-16T08:20:35;96462.81;;;-2.53;76.98
74675;BME280;63200;48.810;12.352;2022-12-16T08:23:19;96463.09;;;-2.43;75.84
74675;BME280;63200;48.810;12.352;2022-12-16T08:26:03;96396.28;;;-2.89;75.72
74675;BME280;63200;48.810;12.352;2022-12-16T08:28:48;96445.66;;;-2.69;76.24
74675;BME280;63200;48.810;12.352;2022-12-16T08:31:32;96478.34;;;-2.38;75.91
74675;BME280;63200;48.810;12.352;2022-12-16T08:34:21;96474.50;;;-2.42;75.45
74675;BME280;63200;48.810;12.352;2022-12-16T08:37:05;96467.38;;;-2.42;75.61
74675;BME280;63200;48.810;12.352;2022-12-16T08:39:49;96495.78;;;-2.00;74.83
74675;BME280;63200;48.810;12.352;2022-12-16T08:42:33;96489.34;;;-1.69;73.48
74675;BME280;63200;48.810;12.352;2022-12-16T08:45:16;96443.06;;;-2.03;72.48
74675;BME280;63200;48.810;12.352;2022-12-16T08:48:01;96500.34;;;-1.65;73.05
74675;BME280;63200;48.810;12.352;2022-12-16T08:50:44;96473.25;;;-1.97;73.41
74675;BME280;63200;48.810;12.352;2022-12-16T08:53:28;96402.75;;;-2.42;73.24
74675;BME280;63200;48.810;12.352;2022-12-16T08:56:12;96474.38;;;-2.05;73.17
74675;BME280;63200;48.810;12.352;2022-12-16T08:58:56;96503.56;;;-1.87;72.83
74675;BME280;63200;48.810;12.352;2022-12-16T09:01:40;96520.38;;;-1.74;72.64
74675;BME280;63200;48.810;12.352;2022-12-16T09:04:24;96521.72;;;-1.95;72.93
74675;BME280;63200;48.810;12.352;2022-12-16T09:07:08;96510.44;;;-2.09;73.42
74675;BME280;63200;48.810;12.352;2022-12-16T09:09:52;96512.72;;;-1.82;73.14
74675;BME280;63200;48.810;12.352;2022-12-16T09:12:35;96511.09;;;-1.83;73.14
74675;BME280;63200;48.810;12.352;2022-12-16T09:15:19;96501.94;;;-1.99;72.63
74675;BME280;63200;48.810;12.352;2022-12-16T09:18:03;96521.47;;;-1.94;73.02
74675;BME280;63200;48.810;12.352;2022-12-16T09:20:47;96516.38;;;-1.95;72.97
74675;BME280;63200;48.810;12.352;2022-12-16T09:23:31;96536.03;;;-1.96;72.88
74675;BME280;63200;48.810;12.352;2022-12-16T09:26:15;96492.09;;;-1.99;72.20
74675;BME280;63200;48.810;12.352;2022-12-16T09:28:59;96523.03;;;-1.74;71.73
74675;BME280;63200;48.810;12.352;2022-12-16T09:31:43;96554.06;;;-1.44;71.26
74675;BME280;63200;48.810;12.352;2022-12-16T09:34:26;96557.44;;;-1.25;70.86
74675;BME280;63200;48.810;12.352;2022-12-16T09:37:10;96522.41;;;-1.88;71.17
74675;BME280;63200;48.810;12.352;2022-12-16T09:39:54;96551.81;;;-2.13;72.45
74675;BME280;63200;48.810;12.352;2022-12-16T09:42:50;96565.69;;;-2.23;73.31
74675;BME280;63200;48.810;12.352;2022-12-16T09:45:48;96570.81;;;-2.10;73.19
74675;BME280;63200;48.810;12.352;2022-12-16T09:48:50;96580.13;;;-1.89;72.03
74675;BME280;63200;48.810;12.352;2022-12-16T09:51:41;96573.66;;;-1.93;72.19
74675;BME280;63200;48.810;12.352;2022-12-16T09:54:28;96581.53;;;-1.86;72.23
74675;BME280;63200;48.810;12.352;2022-12-16T09:57:15;96582.84;;;-1.65;71.88
74675;BME280;63200;48.810;12.352;2022-12-16T10:00:03;96588.31;;;-1.60;71.49
74675;BME280;63200;48.810;12.352;2022-12-16T10:02:48;96592.53;;;-1.82;71.17
74675;BME280;63200;48.810;12.352;2022-12-16T10:05:53;96595.59;;;-1.97;72.02
74675;BME280;63200;48.810;12.352;2022-12-16T10:08:54;96597.75;;;-1.76;72.23
74675;BME280;63200;48.810;12.352;2022-12-16T10:11:57;96591.44;;;-1.51;71.36
74675;BME280;63200;48.810;12.352;2022-12-16T10:14:50;96574.56;;;-1.87;71.05
74675;BME280;63200;48.810;12.352;2022-12-16T10:17:43;96605.47;;;-1.86;71.58
74675;BME280;63200;48.810;12.352;2022-12-16T10:20:45;96600.34;;;-1.99;71.87
74675;BME280;63200;48.810;12.352;2022-12-16T10:29:40;96637.03;;;-1.47;72.26
74675;BME280;63200;48.810;12.352;2022-12-16T10:32:39;96629.31;;;-1.37;70.67
74675;BME280;63200;48.810;12.352;2022-12-16T10:38:27;96620.69;;;-1.63;70.86
74675;BME280;63200;48.810;12.352;2022-12-16T10:41:15;96626.84;;;-1.62;71.05
74675;BME280;63200;48.810;12.352;2022-12-16T10:44:02;96623.94;;;-1.61;71.08
74675;BME280;63200;48.810;12.352;2022-12-16T10:46:59;96629.75;;;-1.52;70.92
74675;BME280;63200;48.810;12.352;2022-12-16T10:49:42;96627.00;;;-1.45;71.09
74675;BME280;63200;48.810;12.352;2022-12-16T10:52:26;96632.78;;;-1.37;70.65
74675;BME280;63200;48.810;12.352;2022-12-16T10:58:22;96627.91;;;-2.12;72.74
74675;BME280;63200;48.810;12.352;2022-12-16T11:01:22;96639.66;;;-2.20;73.24
74675;BME280;63200;48.810;12.352;2022-12-16T11:07:29;96624.56;;;-2.08;72.91
74675;BME280;63200;48.810;12.352;2022-12-16T11:13:19;96640.13;;;-1.08;70.61
74675;BME280;63200;48.810;12.352;2022-12-16T11:16:10;96646.50;;;-1.09;69.72
74675;BME280;63200;48.810;12.352;2022-12-16T11:18:55;96650.28;;;-1.29;69.77
74675;BME280;63200;48.810;12.352;2022-12-16T11:21:39;96645.91;;;-0.88;69.08
74675;BME280;63200;48.810;12.352;2022-12-16T11:24:23;96635.22;;;-0.40;67.57
74675;BME280;63200;48.810;12.352;2022-12-16T11:27:25;96617.09;;;0.03;65.34
74675;BME280;63200;48.810;12.352;2022-12-16T11:32:59;96635.00;;;-0.62;67.73
74675;BME280;63200;48.810;12.352;2022-12-16T11:35:47;96642.44;;;-0.76;68.45
74675;BME280;63200;48.810;12.352;2022-12-16T11:41:27;96647.91;;;-0.71;69.13
74675;BME280;63200;48.810;12.352;2022-12-16T11:44:17;96650.06;;;-0.44;68.54
74675;BME280;63200;48.810;12.352;2022-12-16T11:47:11;96654.56;;;-0.21;68.51
74675;BME280;63200;48.810;12.352;2022-12-16T11:49:59;96655.94;;;0.10;67.34
74675;BME280;63200;48.810;12.352;2022-12-16T11:52:50;96652.06;;;-0.63;67.84
74675;BME280;63200;48.810;12.352;2022-12-16T11:55:36;96656.94;;;-0.72;68.51
74675;BME280;63200;48.810;12.352;2022-12-16T11:58:30;96654.94;;;-0.89;70.51
74675;BME280;63200;48.810;12.352;2022-12-16T12:01:21;96661.19;;;-1.19;70.27
74675;BME280;63200;48.810;12.352;2022-12-16T12:04:07;96661.00;;;-1.47;71.33
74675;BME280;63200;48.810;12.352;2022-12-16T12:13:25;96684.22;;;-1.66;72.83
74675;BME280;63200;48.810;12.352;2022-12-16T12:16:29;96675.69;;;-1.57;72.49
74675;BME280;63200;48.810;12.352;2022-12-16T12:19:20;96670.59;;;-1.58;71.72
74675;BME280;63200;48.810;12.352;2022-12-16T12:22:37;96687.34;;;-1.15;71.27
74675;BME280;63200;48.810;12.352;2022-12-16T12:25:38;96679.16;;;-1.02;70.54
74675;BME280;63200;48.810;12.352;2022-12-16T12:41:26;96695.50;;;-1.41;71.20
74675;BME280;63200;48.810;12.352;2022-12-16T12:44:22;96689.25;;;-1.46;71.44
74675;BME280;63200;48.810;12.352;2022-12-16T12:47:10;96699.00;;;-1.28;71.31
74675;BME280;63200;48.810;12.352;2022-12-16T12:50:05;96685.94;;;-1.30;71.32
74675;BME280;63200;48.810;12.352;2022-12-16T12:53:53;96689.72;;;-1.49;71.26
74675;BME280;63200;48.810;12.352;2022-12-16T12:59:24;96685.44;;;-1.81;72.43
74675;BME280;63200;48.810;12.352;2022-12-16T13:02:14;96704.44;;;-1.65;72.27
74675;BME280;63200;48.810;12.352;2022-12-16T13:05:01;96677.41;;;-1.62;72.30
74675;BME280;63200;48.810;12.352;2022-12-16T13:07:45;96705.03;;;-1.33;71.64
74675;BME280;63200;48.810;12.352;2022-12-16T13:10:34;96712.41;;;-1.35;71.69
74675;BME280;63200;48.810;12.352;2022-12-16T13:13:27;96714.44;;;-1.19;71.44
74675;BME280;63200;48.810;12.352;2022-12-16T13:16:13;96710.09;;;-1.01;71.18
74675;BME280;63200;48.810;12.352;2022-12-16T13:22:29;96723.00;;;-1.17;71.32
74675;BME280;63200;48.810;12.352;2022-12-16T13:28:21;96734.63;;;-1.11;71.45
74675;BME280;63200;48.810;12.352;2022-12-16T13:31:07;96736.47;;;-1.11;72.13
74675;BME280;63200;48.810;12.352;2022-12-16T13:33:51;96735.31;;;-1.04;71.80
74675;BME280;63200;48.810;12.352;2022-12-16T13:36:36;96717.38;;;-1.08;71.85
74675;BME280;63200;48.810;12.352;2022-12-16T13:39:25;96709.25;;;-1.56;72.12
74675;BME280;63200;48.810;12.352;2022-12-16T13:45:41;96758.44;;;-1.28;73.08
74675;BME280;63200;48.810;12.352;2022-12-16T13:54:41;96771.66;;;-1.21;72.93
74675;BME280;63200;48.810;12.352;2022-12-16T13:57:29;96780.84;;;-1.36;73.45
74675;BME280;63200;48.810;12.352;2022-12-16T14:00:20;96783.00;;;-1.44;74.06
74675;BME280;63200;48.810;12.352;2022-12-16T14:03:11;96771.34;;;-1.62;74.68
74675;BME280;63200;48.810;12.352;2022-12-16T14:05:58;96759.47;;;-1.78;74.49
74675;BME280;63200;48.810;12.352;2022-12-16T14:08:44;96757.91;;;-1.86;74.87
74675;BME280;63200;48.810;12.352;2022-12-16T14:11:45;96794.22;;;-1.73;75.29
74675;BME280;63200;48.810;12.352;2022-12-16T14:14:46;96811.66;;;-1.58;75.15
74675;BME280;63200;48.810;12.352;2022-12-16T14:17:44;96819.19;;;-1.74;75.04
74675;BME280;63200;48.810;12.352;2022-12-16T14:20:55;96815.03;;;-1.88;75.48
74675;BME280;63200;48.810;12.352;2022-12-16T14:24:01;96824.66;;;-1.87;76.00
74675;BME280;63200;48.810;12.352;2022-12-16T14:26:48;96777.34;;;-2.22;76.37
74675;BME280;63200;48.810;12.352;2022-12-16T14:29:33;96817.13;;;-2.09;76.72
74675;BME280;63200;48.810;12.352;2022-12-16T14:32:29;96825.44;;;-2.05;76.79
74675;BME280;63200;48.810;12.352;2022-12-16T14:35:21;96828.72;;;-2.03;76.92
74675;BME280;63200;48.810;12.352;2022-12-16T14:38:22;96834.91;;;-2.09;76.73
74675;BME280;63200;48.810;12.352;2022-12-16T14:41:15;96831.06;;;-2.13;77.09
74675;BME280;63200;48.810;12.352;2022-12-16T14:44:02;96843.38;;;-2.19;77.02
74675;BME280;63200;48.810;12.352;2022-12-16T14:46:49;96852.56;;;-2.15;77.15
74675;BME280;63200;48.810;12.352;2022-12-16T14:49:33;96853.41;;;-2.21;77.21
74675;BME280;63200;48.810;12.352;2022-12-16T14:52:22;96865.47;;;-2.19;77.34
74675;BME280;63200;48.810;12.352;2022-12-16T14:58:19;96868.41;;;-2.27;78.38
74675;BME280;63200;48.810;12.352;2022-12-16T15:01:23;96826.31;;;-2.55;78.34
74675;BME280;63200;48.810;12.352;2022-12-16T15:04:17;96875.13;;;-2.24;78.63
74675;BME280;63200;48.810;12.352;2022-12-16T15:07:18;96874.16;;;-2.30;78.16
74675;BME280;63200;48.810;12.352;2022-12-16T15:10:03;96884.72;;;-2.48;78.99
74675;BME280;63200;48.810;12.352;2022-12-16T15:12:47;96882.06;;;-2.48;78.43
74675;BME280;63200;48.810;12.352;2022-12-16T15:18:23;96900.06;;;-2.51;78.76
74675;BME280;63200;48.810;12.352;2022-12-16T15:21:08;96858.28;;;-2.69;78.59
74675;BME280;63200;48.810;12.352;2022-12-16T15:23:52;96897.69;;;-2.33;78.48
74675;BME280;63200;48.810;12.352;2022-12-16T15:26:37;96898.09;;;-2.30;78.77
74675;BME280;63200;48.810;12.352;2022-12-16T15:29:37;96905.22;;;-2.30;78.50
74675;BME280;63200;48.810;12.352;2022-12-16T15:32:33;96911.22;;;-2.35;78.38
74675;BME280;63200;48.810;12.352;2022-12-16T15:40:59;96929.50;;;-2.20;77.87
74675;BME280;63200;48.810;12.352;2022-12-16T15:43:45;96929.38;;;-2.32;78.26
74675;BME280;63200;48.810;12.352;2022-12-16T15:46:30;96921.81;;;-2.28;78.22
74675;BME280;63200;48.810;12.352;2022-12-16T15:49:16;96936.91;;;-2.29;78.10
74675;BME280;63200;48.810;12.352;2022-12-16T15:52:01;96938.19;;;-2.31;78.29